sensor_id;sensor_type;location;lat;lon;timestamp;pressure;altitude;pressure_sealevel;temperature;humidity
15646;BME280;7922;43.622;1.476;2023-05-23T00:01:54;100110.81;;;17.19;93.15
15646;BME280;7922;43.622;1.476;2023-05-23T00:04:20;100057.75;;;16.86;93.12
15646;BME280;7922;43.622;1.476;2023-05-23T00:06:45;100101.88;;;17.05;93.20
15646;BME280;7922;43.622;1.476;2023-05-23T00:09:10;100094.56;;;16.95;93.45
15646;BME280;7922;43.622;1.476;2023-05-23T00:11:36;100035.16;;;16.63;93.17
15646;BME280;7922;43.622;1.476;2023-05-23T00:14:01;100112.38;;;17.08;93.18
15646;BME280;7922;43.622;1.476;2023-05-23T00:16:26;100100.91;;;16.94;93.99
15646;BME280;7922;43.622;1.476;2023-05-23T00:18:52;100076.03;;;16.79;94.02
15646;BME280;7922;43.622;1.476;2023-05-23T00:21:17;100093.38;;;16.86;94.82
15646;BME280;7922;43.622;1.476;2023-05-23T00:23:42;100095.09;;;16.87;94.76
15646;BME280;7922;43.622;1.476;2023-05-23T00:26:08;100078.31;;;16.71;95.20
15646;BME280;7922;43.622;1.476;2023-05-23T00:28:34;100098.06;;;16.82;95.10
15646;BME280;7922;43.622;1.476;2023-05-23T00:30:59;100030.16;;;16.31;95.55
15646;BME280;7922;43.622;1.476;2023-05-23T00:33:24;100081.72;;;16.60;95.68
15646;BME280;7922;43.622;1.476;2023-05-23T00:35:50;100109.66;;;16.69;95.97
15646;BME280;7922;43.622;1.476;2023-05-23T00:38:16;100085.81;;;16.51;96.22
15646;BME280;7922;43.622;1.476;2023-05-23T00:40:41;100113.78;;;16.74;96.08
15646;BME280;7922;43.622;1.476;2023-05-23T00:43:06;100058.63;;;16.45;96.47
15646;BME280;7922;43.622;1.476;2023-05-23T00:45:32;100064.44;;;16.51;96.51
15646;BME280;7922;43.622;1.476;2023-05-23T00:47:57;100092.94;;;16.65;96.46
15646;BME280;7922;43.622;1.476;2023-05-23T00:50:23;100079.56;;;16.65;96.19
15646;BME280;7922;43.622;1.476;2023-05-23T00:52:48;100037.53;;;16.40;96.26
15646;BME280;7922;43.622;1.476;2023-05-23T00:55:14;100094.84;;;16.77;95.98
15646;BME280;7922;43.622;1.476;2023-05-23T00:57:40;100056.88;;;16.58;95.84
15646;BME280;7922;43.622;1.476;2023-05-23T01:00:11;100012.47;;;16.28;95.81
15646;BME280;7922;43.622;1.476;2023-05-23T01:02:44;100076.03;;;16.65;96.39
15646;BME280;7922;43.622;1.476;2023-05-23T01:05:13;100069.28;;;16.59;96.36
15646;BME280;7922;43.622;1.476;2023-05-23T01:07:40;100055.47;;;16.52;96.24
15646;BME280;7922;43.622;1.476;2023-05-23T01:10:06;99998.97;;;16.17;96.29
15646;BME280;7922;43.622;1.476;2023-05-23T01:15:20;99987.25;;;16.05;96.66
15646;BME280;7922;43.622;1.476;2023-05-23T01:17:54;100067.47;;;16.59;96.39
15646;BME280;7922;43.622;1.476;2023-05-23T01:20:34;100007.72;;;16.19;96.80
15646;BME280;7922;43.622;1.476;2023-05-23T01:25:56;100064.88;;;16.58;96.49
15646;BME280;7922;43.622;1.476;2023-05-23T01:28:31;100007.94;;;16.16;96.25
15646;BME280;7922;43.622;1.476;2023-05-23T01:30:57;100071.41;;;16.54;96.48
15646;BME280;7922;43.622;1.476;2023-05-23T01:33:24;100075.03;;;16.53;96.31
15646;BME280;7922;43.622;1.476;2023-05-23T01:35:52;100051.41;;;16.32;96.51
15646;BME280;7922;43.622;1.476;2023-05-23T01:38:19;100028.38;;;16.17;96.56
15646;BME280;7922;43.622;1.476;2023-05-23T01:40:44;100052.28;;;16.33;96.74
15646;BME280;7922;43.622;1.476;2023-05-23T01:43:09;99987.09;;;15.94;96.85
15646;BME280;7922;43.622;1.476;2023-05-23T01:45:35;100049.91;;;16.28;97.03
15646;BME280;7922;43.622;1.476;2023-05-23T01:48:01;99986.53;;;15.89;97.06
15646;BME280;7922;43.622;1.476;2023-05-23T01:50:28;99971.00;;;15.81;96.78
15646;BME280;7922;43.622;1.476;2023-05-23T01:52:55;100052.38;;;16.31;97.05
15646;BME280;7922;43.622;1.476;2023-05-23T01:55:21;100020.00;;;16.09;97.21
15646;BME280;7922;43.622;1.476;2023-05-23T01:57:50;100031.22;;;16.14;97.13
15646;BME280;7922;43.622;1.476;2023-05-23T02:00:16;99960.03;;;15.72;97.48
15646;BME280;7922;43.622;1.476;2023-05-23T02:02:42;100009.03;;;15.99;97.53
15646;BME280;7922;43.622;1.476;2023-05-23T02:05:08;100038.09;;;16.18;97.86
15646;BME280;7922;43.622;1.476;2023-05-23T02:07:34;99981.13;;;15.76;97.67
15646;BME280;7922;43.622;1.476;2023-05-23T02:09:59;99956.22;;;15.61;97.49
15646;BME280;7922;43.622;1.476;2023-05-23T02:12:25;100032.88;;;16.02;97.99
15646;BME280;7922;43.622;1.476;2023-05-23T02:14:50;100024.41;;;15.96;98.21
15646;BME280;7922;43.622;1.476;2023-05-23T02:17:16;100040.59;;;16.07;98.39
15646;BME280;7922;43.622;1.476;2023-05-23T02:19:41;100027.25;;;15.93;98.44
15646;BME280;7922;43.622;1.476;2023-05-23T02:22:07;100028.88;;;15.95;98.53
15646;BME280;7922;43.622;1.476;2023-05-23T02:24:32;100027.06;;;15.96;98.82
15646;BME280;7922;43.622;1.476;2023-05-23T02:26:57;100021.19;;;15.91;98.57
15646;BME280;7922;43.622;1.476;2023-05-23T02:29:22;100026.78;;;15.86;98.95
15646;BME280;7922;43.622;1.476;2023-05-23T02:31:48;100021.94;;;15.78;99.02
15646;BME280;7922;43.622;1.476;2023-05-23T02:34:13;100023.38;;;15.70;99.17
15646;BME280;7922;43.622;1.476;2023-05-23T02:36:38;100038.06;;;15.77;99.05
15646;BME280;7922;43.622;1.476;2023-05-23T02:39:04;100001.34;;;15.52;99.38
15646;BME280;7922;43.622;1.476;2023-05-23T02:41:30;99969.84;;;15.28;99.46
15646;BME280;7922;43.622;1.476;2023-05-23T02:43:55;99997.34;;;15.45;99.56
15646;BME280;7922;43.622;1.476;2023-05-23T02:46:20;99968.53;;;15.21;99.83
15646;BME280;7922;43.622;1.476;2023-05-23T02:48:46;99965.00;;;15.21;99.90
15646;BME280;7922;43.622;1.476;2023-05-23T02:51:11;99985.19;;;15.25;99.93
15646;BME280;7922;43.622;1.476;2023-05-23T02:53:37;100024.59;;;15.50;100.00
15646;BME280;7922;43.622;1.476;2023-05-23T02:56:02;100035.25;;;15.50;100.00
15646;BME280;7922;43.622;1.476;2023-05-23T02:58:27;100037.00;;;15.51;100.00
15646;BME280;7922;43.622;1.476;2023-05-23T03:00:53;100044.13;;;15.50;100.00
15646;BME280;7922;43.622;1.476;2023-05-23T03:03:18;100029.34;;;15.30;100.00
15646;BME280;7922;43.622;1.476;2023-05-23T03:05:43;99984.63;;;15.05;100.00
15646;BME280;7922;43.622;1.476;2023-05-23T03:08:09;100045.28;;;15.46;100.00
15646;BME280;7922;43.622;1.476;2023-05-23T03:10:34;99985.09;;;14.98;100.00
15646;BME280;7922;43.622;1.476;2023-05-23T03:12:59;99979.38;;;14.89;100.00
15646;BME280;7922;43.622;1.476;2023-05-23T03:15:24;100059.38;;;15.34;100.00
15646;BME280;7922;43.622;1.476;2023-05-23T03:17:50;100025.81;;;15.15;100.00
15646;BME280;7922;43.622;1.476;2023-05-23T03:20:15;100050.41;;;15.21;100.00
15646;BME280;7922;43.622;1.476;2023-05-23T03:22:40;100026.56;;;15.03;100.00
15646;BME280;7922;43.622;1.476;2023-05-23T03:25:06;100006.63;;;14.95;100.00
15646;BME280;7922;43.622;1.476;2023-05-23T03:27:31;100017.28;;;14.95;100.00
15646;BME280;7922;43.622;1.476;2023-05-23T03:29:56;100018.41;;;14.90;100.00
15646;BME280;7922;43.622;1.476;2023-05-23T03:32:22;100035.00;;;14.96;100.00
15646;BME280;7922;43.622;1.476;2023-05-23T03:34:47;100036.63;;;14.98;100.00
15646;BME280;7922;43.622;1.476;2023-05-23T03:37:12;100045.78;;;14.94;100.00
15646;BME280;7922;43.622;1.476;2023-05-23T03:39:38;100030.69;;;14.79;100.00
15646;BME280;7922;43.622;1.476;2023-05-23T03:42:03;99969.53;;;14.45;100.00
15646;BME280;7922;43.622;1.476;2023-05-23T03:44:28;99971.41;;;14.43;100.00
15646;BME280;7922;43.622;1.476;2023-05-23T03:46:53;100064.63;;;14.91;100.00
15646;BME280;7922;43.622;1.476;2023-05-23T03:49:19;99954.28;;;14.17;100.00
15646;BME280;7922;43.622;1.476;2023-05-23T03:51:44;100038.97;;;14.58;100.00
15646;BME280;7922;43.622;1.476;2023-05-23T03:54:09;100064.94;;;14.71;100.00
15646;BME280;7922;43.622;1.476;2023-05-23T03:56:35;100013.81;;;14.32;100.00
15646;BME280;7922;43.622;1.476;2023-05-23T03:59:00;100043.75;;;14.53;100.00
15646;BME280;7922;43.622;1.476;2023-05-23T04:01:25;99986.41;;;14.14;100.00
15646;BME280;7922;43.622;1.476;2023-05-23T04:03:50;100050.09;;;14.51;100.00
15646;BME280;7922;43.622;1.476;2023-05-23T04:06:16;100063.06;;;14.57;100.00
15646;BME280;7922;43.622;1.476;2023-05-23T04:08:41;100065.75;;;14.57;100.00
15646;BME280;7922;43.622;1.476;2023-05-23T04:11:06;100066.09;;;14.51;100.00
15646;BME280;7922;43.622;1.476;2023-05-23T04:13:32;100012.53;;;14.24;100.00
15646;BME280;7922;43.622;1.476;2023-05-23T04:15:59;100047.25;;;14.38;100.00
15646;BME280;7922;43.622;1.476;2023-05-23T04:18:25;100047.66;;;14.30;100.00
15646;BME280;7922;43.622;1.476;2023-05-23T04:20:50;100055.25;;;14.38;100.00
15646;BME280;7922;43.622;1.476;2023-05-23T04:23:15;100064.78;;;14.42;100.00
15646;BME280;7922;43.622;1.476;2023-05-23T04:25:41;100086.00;;;14.59;100.00
15646;BME280;7922;43.622;1.476;2023-05-23T04:28:06;100095.91;;;14.57;100.00
15646;BME280;7922;43.622;1.476;2023-05-23T04:30:31;100088.25;;;14.51;100.00
15646;BME280;7922;43.622;1.476;2023-05-23T04:32:58;99995.00;;;14.04;100.00
15646;BME280;7922;43.622;1.476;2023-05-23T04:35:23;100004.19;;;14.14;100.00
15646;BME280;7922;43.622;1.476;2023-05-23T04:37:48;100074.94;;;14.51;100.00
15646;BME280;7922;43.622;1.476;2023-05-23T04:40:14;100058.16;;;14.49;100.00
15646;BME280;7922;43.622;1.476;2023-05-23T04:42:39;100012.34;;;14.27;100.00
15646;BME280;7922;43.622;1.476;2023-05-23T04:45:05;100090.03;;;14.82;100.00
15646;BME280;7922;43.622;1.476;2023-05-23T04:47:30;100087.25;;;14.84;100.00
15646;BME280;7922;43.622;1.476;2023-05-23T04:49:55;100062.31;;;14.85;100.00
15646;BME280;7922;43.622;1.476;2023-05-23T04:52:20;99987.97;;;14.49;100.00
15646;BME280;7922;43.622;1.476;2023-05-23T04:54:46;100065.75;;;14.87;100.00
15646;BME280;7922;43.622;1.476;2023-05-23T04:57:11;100065.03;;;14.99;100.00
15646;BME280;7922;43.622;1.476;2023-05-23T04:59:37;100085.38;;;15.16;100.00
15646;BME280;7922;43.622;1.476;2023-05-23T05:02:03;100089.97;;;15.28;100.00
15646;BME280;7922;43.622;1.476;2023-05-23T05:04:29;100079.03;;;15.33;99.68
15646;BME280;7922;43.622;1.476;2023-05-23T05:06:54;100033.53;;;15.20;98.96
15646;BME280;7922;43.622;1.476;2023-05-23T05:09:19;100084.38;;;15.47;98.54
15646;BME280;7922;43.622;1.476;2023-05-23T05:11:45;100086.94;;;15.34;99.12
15646;BME280;7922;43.622;1.476;2023-05-23T05:14:10;100091.97;;;15.39;99.05
15646;BME280;7922;43.622;1.476;2023-05-23T05:16:35;100123.78;;;15.58;98.79
15646;BME280;7922;43.622;1.476;2023-05-23T05:19:00;100124.31;;;15.49;98.49
15646;BME280;7922;43.622;1.476;2023-05-23T05:21:26;100129.47;;;15.37;99.38
15646;BME280;7922;43.622;1.476;2023-05-23T05:23:51;100112.28;;;15.27;99.58
15646;BME280;7922;43.622;1.476;2023-05-23T05:26:16;100118.69;;;15.39;99.75
15646;BME280;7922;43.622;1.476;2023-05-23T05:28:42;100134.25;;;15.61;98.13
15646;BME280;7922;43.622;1.476;2023-05-23T05:31:07;100117.00;;;15.52;98.44
15646;BME280;7922;43.622;1.476;2023-05-23T05:33:32;100066.81;;;15.29;98.25
15646;BME280;7922;43.622;1.476;2023-05-23T05:35:57;100131.56;;;15.77;98.20
15646;BME280;7922;43.622;1.476;2023-05-23T05:38:23;100138.50;;;15.79;97.55
15646;BME280;7922;43.622;1.476;2023-05-23T05:40:48;100118.16;;;15.62;97.88
15646;BME280;7922;43.622;1.476;2023-05-23T05:43:13;100127.50;;;15.55;98.49
15646;BME280;7922;43.622;1.476;2023-05-23T05:45:38;100117.94;;;15.51;98.69
15646;BME280;7922;43.622;1.476;2023-05-23T05:48:04;100117.28;;;15.17;100.00
15646;BME280;7922;43.622;1.476;2023-05-23T05:50:29;100076.56;;;15.00;100.00
15646;BME280;7922;43.622;1.476;2023-05-23T05:52:54;100127.53;;;15.25;100.00
15646;BME280;7922;43.622;1.476;2023-05-23T05:55:20;100125.00;;;15.08;100.00
15646;BME280;7922;43.622;1.476;2023-05-23T05:57:45;100144.84;;;15.18;100.00
15646;BME280;7922;43.622;1.476;2023-05-23T06:00:12;100142.47;;;15.28;100.00
15646;BME280;7922;43.622;1.476;2023-05-23T06:02:38;100151.16;;;15.31;100.00
15646;BME280;7922;43.622;1.476;2023-05-23T06:05:05;100072.34;;;14.96;100.00
15646;BME280;7922;43.622;1.476;2023-05-23T06:07:30;100131.09;;;15.40;100.00
15646;BME280;7922;43.622;1.476;2023-05-23T06:09:55;100101.38;;;15.16;100.00
15646;BME280;7922;43.622;1.476;2023-05-23T06:12:21;100142.34;;;15.45;100.00
15646;BME280;7922;43.622;1.476;2023-05-23T06:14:46;100114.31;;;15.52;100.00
15646;BME280;7922;43.622;1.476;2023-05-23T06:17:11;100140.84;;;15.55;100.00
15646;BME280;7922;43.622;1.476;2023-05-23T06:19:36;100098.47;;;15.35;100.00
15646;BME280;7922;43.622;1.476;2023-05-23T06:22:02;100061.25;;;15.03;100.00
15646;BME280;7922;43.622;1.476;2023-05-23T06:24:27;100136.25;;;15.57;100.00
15646;BME280;7922;43.622;1.476;2023-05-23T06:26:52;100126.03;;;15.66;100.00
15646;BME280;7922;43.622;1.476;2023-05-23T06:29:18;100142.59;;;15.71;100.00
15646;BME280;7922;43.622;1.476;2023-05-23T06:31:43;100107.28;;;15.51;100.00
15646;BME280;7922;43.622;1.476;2023-05-23T06:34:08;100124.59;;;15.74;99.86
15646;BME280;7922;43.622;1.476;2023-05-23T06:36:33;100117.09;;;15.51;100.00
15646;BME280;7922;43.622;1.476;2023-05-23T06:38:59;100083.97;;;15.69;99.70
15646;BME280;7922;43.622;1.476;2023-05-23T06:41:24;100117.13;;;15.94;98.60
15646;BME280;7922;43.622;1.476;2023-05-23T06:43:49;100056.47;;;15.67;97.97
15646;BME280;7922;43.622;1.476;2023-05-23T06:46:14;100111.69;;;16.24;97.02
15646;BME280;7922;43.622;1.476;2023-05-23T06:48:40;100071.34;;;16.00;96.76
15646;BME280;7922;43.622;1.476;2023-05-23T06:51:05;100091.75;;;16.01;96.30
15646;BME280;7922;43.622;1.476;2023-05-23T06:53:30;100132.59;;;16.03;97.58
15646;BME280;7922;43.622;1.476;2023-05-23T06:55:55;100122.59;;;15.92;97.87
15646;BME280;7922;43.622;1.476;2023-05-23T06:58:21;100080.03;;;15.75;97.42
15646;BME280;7922;43.622;1.476;2023-05-23T07:00:46;100126.56;;;16.28;97.18
15646;BME280;7922;43.622;1.476;2023-05-23T07:03:15;100158.97;;;16.65;95.62
15646;BME280;7922;43.622;1.476;2023-05-23T07:05:40;100115.97;;;16.26;95.91
15646;BME280;7922;43.622;1.476;2023-05-23T07:08:05;100081.72;;;16.04;95.86
15646;BME280;7922;43.622;1.476;2023-05-23T07:10:30;100132.22;;;16.65;94.81
15646;BME280;7922;43.622;1.476;2023-05-23T07:12:56;100140.28;;;16.50;94.76
15646;BME280;7922;43.622;1.476;2023-05-23T07:15:21;100123.72;;;16.58;94.54
15646;BME280;7922;43.622;1.476;2023-05-23T07:17:46;100095.88;;;16.48;94.70
15646;BME280;7922;43.622;1.476;2023-05-23T07:20:11;100135.34;;;16.86;93.13
15646;BME280;7922;43.622;1.476;2023-05-23T07:22:37;100143.44;;;16.84;93.67
15646;BME280;7922;43.622;1.476;2023-05-23T07:25:02;100077.75;;;16.66;93.02
15646;BME280;7922;43.622;1.476;2023-05-23T07:27:27;100116.03;;;17.20;91.07
15646;BME280;7922;43.622;1.476;2023-05-23T07:29:53;100090.00;;;16.97;91.00
15646;BME280;7922;43.622;1.476;2023-05-23T07:32:18;100108.00;;;17.07;90.76
15646;BME280;7922;43.622;1.476;2023-05-23T07:34:43;100144.16;;;17.40;89.42
15646;BME280;7922;43.622;1.476;2023-05-23T07:37:09;100142.88;;;17.46;89.49
15646;BME280;7922;43.622;1.476;2023-05-23T07:39:34;100148.72;;;17.78;88.40
15646;BME280;7922;43.622;1.476;2023-05-23T07:41:59;100134.13;;;18.08;86.92
15646;BME280;7922;43.622;1.476;2023-05-23T07:44:24;100100.78;;;17.99;86.25
15646;BME280;7922;43.622;1.476;2023-05-23T07:46:50;100152.13;;;18.18;86.14
15646;BME280;7922;43.622;1.476;2023-05-23T07:49:15;100170.22;;;18.40;86.14
15646;BME280;7922;43.622;1.476;2023-05-23T07:51:40;100161.66;;;18.35;85.86
15646;BME280;7922;43.622;1.476;2023-05-23T07:54:06;100150.50;;;18.28;85.14
15646;BME280;7922;43.622;1.476;2023-05-23T07:56:31;100101.00;;;17.96;85.32
15646;BME280;7922;43.622;1.476;2023-05-23T07:58:56;100163.28;;;18.25;85.72
15646;BME280;7922;43.622;1.476;2023-05-23T08:01:22;100157.25;;;18.21;85.81
15646;BME280;7922;43.622;1.476;2023-05-23T08:03:47;100149.78;;;18.26;84.74
15646;BME280;7922;43.622;1.476;2023-05-23T08:06:12;100151.50;;;18.51;84.19
15646;BME280;7922;43.622;1.476;2023-05-23T08:08:37;100155.34;;;18.97;83.41
15646;BME280;7922;43.622;1.476;2023-05-23T08:11:03;100175.34;;;19.17;82.32
15646;BME280;7922;43.622;1.476;2023-05-23T08:13:29;100142.66;;;18.99;81.85
15646;BME280;7922;43.622;1.476;2023-05-23T08:15:54;100090.44;;;18.92;81.26
15646;BME280;7922;43.622;1.476;2023-05-23T08:18:20;100103.84;;;19.62;78.70
15646;BME280;7922;43.622;1.476;2023-05-23T08:20:45;100109.50;;;20.15;76.70
15646;BME280;7922;43.622;1.476;2023-05-23T08:23:10;100157.91;;;20.27;76.47
15646;BME280;7922;43.622;1.476;2023-05-23T08:25:36;100142.13;;;20.11;77.11
15646;BME280;7922;43.622;1.476;2023-05-23T08:28:01;100093.47;;;20.03;76.25
15646;BME280;7922;43.622;1.476;2023-05-23T08:30:27;100088.59;;;20.19;75.14
15646;BME280;7922;43.622;1.476;2023-05-23T08:32:53;100121.44;;;20.45;74.31
15646;BME280;7922;43.622;1.476;2023-05-23T08:35:19;100150.56;;;20.95;73.32
15646;BME280;7922;43.622;1.476;2023-05-23T08:37:44;100154.50;;;21.23;72.31
15646;BME280;7922;43.622;1.476;2023-05-23T08:40:13;100143.47;;;21.37;71.78
15646;BME280;7922;43.622;1.476;2023-05-23T08:42:39;100168.38;;;21.71;71.05
15646;BME280;7922;43.622;1.476;2023-05-23T08:45:04;100147.16;;;21.36;70.82
15646;BME280;7922;43.622;1.476;2023-05-23T08:47:31;100096.03;;;21.13;71.24
15646;BME280;7922;43.622;1.476;2023-05-23T08:49:59;100100.59;;;20.81;72.04
15646;BME280;7922;43.622;1.476;2023-05-23T08:52:26;100157.41;;;21.31;72.04
15646;BME280;7922;43.622;1.476;2023-05-23T08:54:54;100057.97;;;20.86;71.81
15646;BME280;7922;43.622;1.476;2023-05-23T08:57:20;100080.91;;;20.69;71.17
15646;BME280;7922;43.622;1.476;2023-05-23T08:59:45;100137.34;;;21.77;68.28
15646;BME280;7922;43.622;1.476;2023-05-23T09:02:11;100153.63;;;22.17;67.82
15646;BME280;7922;43.622;1.476;2023-05-23T09:04:36;100135.75;;;21.95;67.90
15646;BME280;7922;43.622;1.476;2023-05-23T09:07:02;100113.56;;;21.61;68.89
15646;BME280;7922;43.622;1.476;2023-05-23T09:09:28;100132.94;;;21.76;69.31
15646;BME280;7922;43.622;1.476;2023-05-23T09:11:54;100156.53;;;22.04;68.55
15646;BME280;7922;43.622;1.476;2023-05-23T09:14:20;100165.75;;;22.32;67.58
15646;BME280;7922;43.622;1.476;2023-05-23T09:16:46;100104.00;;;22.08;66.66
15646;BME280;7922;43.622;1.476;2023-05-23T09:19:12;100135.41;;;22.50;66.00
15646;BME280;7922;43.622;1.476;2023-05-23T09:21:44;100147.06;;;22.50;65.54
15646;BME280;7922;43.622;1.476;2023-05-23T09:24:10;100099.63;;;22.48;66.52
15646;BME280;7922;43.622;1.476;2023-05-23T09:26:36;100090.69;;;22.76;64.89
15646;BME280;7922;43.622;1.476;2023-05-23T09:29:05;100098.06;;;22.65;64.38
15646;BME280;7922;43.622;1.476;2023-05-23T09:31:31;100126.53;;;22.88;63.81
15646;BME280;7922;43.622;1.476;2023-05-23T09:33:57;100093.00;;;22.00;65.89
15646;BME280;7922;43.622;1.476;2023-05-23T09:36:22;100159.50;;;22.01;66.65
15646;BME280;7922;43.622;1.476;2023-05-23T09:38:48;100144.84;;;22.04;66.67
15646;BME280;7922;43.622;1.476;2023-05-23T09:41:13;100149.38;;;22.55;64.78
15646;BME280;7922;43.622;1.476;2023-05-23T09:43:48;100162.19;;;22.63;64.39
15646;BME280;7922;43.622;1.476;2023-05-23T09:46:14;100086.75;;;22.21;64.29
15646;BME280;7922;43.622;1.476;2023-05-23T09:48:39;100142.28;;;22.64;64.92
15646;BME280;7922;43.622;1.476;2023-05-23T09:51:08;100102.06;;;22.70;63.04
15646;BME280;7922;43.622;1.476;2023-05-23T09:53:34;100145.50;;;23.08;63.13
15646;BME280;7922;43.622;1.476;2023-05-23T09:56:01;100113.19;;;23.16;62.71
15646;BME280;7922;43.622;1.476;2023-05-23T09:58:27;100109.34;;;22.89;64.23
15646;BME280;7922;43.622;1.476;2023-05-23T10:00:54;100096.78;;;22.69;62.36
15646;BME280;7922;43.622;1.476;2023-05-23T10:03:23;100129.94;;;22.90;62.67
15646;BME280;7922;43.622;1.476;2023-05-23T10:06:16;100119.47;;;23.16;63.13
15646;BME280;7922;43.622;1.476;2023-05-23T10:08:44;100115.47;;;23.30;61.10
15646;BME280;7922;43.622;1.476;2023-05-23T10:13:45;100134.78;;;23.64;60.54
15646;BME280;7922;43.622;1.476;2023-05-23T10:16:18;100154.00;;;23.71;60.64
15646;BME280;7922;43.622;1.476;2023-05-23T10:18:57;100105.22;;;23.34;61.20
15646;BME280;7922;43.622;1.476;2023-05-23T10:21:32;100145.31;;;23.87;61.06
15646;BME280;7922;43.622;1.476;2023-05-23T10:24:02;100119.41;;;23.65;59.61
15646;BME280;7922;43.622;1.476;2023-05-23T10:26:28;100132.38;;;23.71;59.14
15646;BME280;7922;43.622;1.476;2023-05-23T10:28:54;100145.94;;;24.08;58.06
15646;BME280;7922;43.622;1.476;2023-05-23T10:31:19;100111.72;;;24.17;57.08
15646;BME280;7922;43.622;1.476;2023-05-23T10:33:51;100094.38;;;24.37;56.45
15646;BME280;7922;43.622;1.476;2023-05-23T10:36:24;100132.41;;;24.45;56.19
15646;BME280;7922;43.622;1.476;2023-05-23T10:39:15;100123.69;;;24.52;55.43
15646;BME280;7922;43.622;1.476;2023-05-23T10:41:47;100144.16;;;24.64;55.91
15646;BME280;7922;43.622;1.476;2023-05-23T10:44:29;100134.19;;;24.27;56.85
15646;BME280;7922;43.622;1.476;2023-05-23T10:46:59;100124.66;;;23.86;57.98
15646;BME280;7922;43.622;1.476;2023-05-23T10:49:42;100159.41;;;23.71;58.64
15646;BME280;7922;43.622;1.476;2023-05-23T10:52:09;100130.75;;;23.97;57.33
15646;BME280;7922;43.622;1.476;2023-05-23T10:54:56;100135.50;;;24.23;56.04
15646;BME280;7922;43.622;1.476;2023-05-23T10:57:24;100088.44;;;23.96;55.42
15646;BME280;7922;43.622;1.476;2023-05-23T10:59:50;100134.00;;;24.38;56.11
15646;BME280;7922;43.622;1.476;2023-05-23T11:02:17;100110.03;;;24.16;55.84
15646;BME280;7922;43.622;1.476;2023-05-23T11:04:43;100127.84;;;24.73;55.74
15646;BME280;7922;43.622;1.476;2023-05-23T11:07:31;100137.41;;;25.49;53.65
15646;BME280;7922;43.622;1.476;2023-05-23T11:10:10;100127.56;;;25.30;55.19
15646;BME280;7922;43.622;1.476;2023-05-23T11:12:40;100120.50;;;25.37;53.94
15646;BME280;7922;43.622;1.476;2023-05-23T11:15:18;100043.50;;;25.12;53.74
15646;BME280;7922;43.622;1.476;2023-05-23T11:17:55;100098.59;;;24.95;52.93
15646;BME280;7922;43.622;1.476;2023-05-23T11:20:23;100058.53;;;24.71;53.93
15646;BME280;7922;43.622;1.476;2023-05-23T11:22:53;100053.44;;;23.85;55.60
15646;BME280;7922;43.622;1.476;2023-05-23T11:25:18;100097.16;;;23.90;56.56
15646;BME280;7922;43.622;1.476;2023-05-23T11:27:46;100104.94;;;24.03;57.04
15646;BME280;7922;43.622;1.476;2023-05-23T11:30:15;100098.47;;;24.14;57.34
15646;BME280;7922;43.622;1.476;2023-05-23T11:32:49;100082.13;;;23.59;57.91
15646;BME280;7922;43.622;1.476;2023-05-23T11:35:15;100048.06;;;23.28;58.55
15646;BME280;7922;43.622;1.476;2023-05-23T11:37:40;100049.59;;;22.53;60.35
15646;BME280;7922;43.622;1.476;2023-05-23T11:40:30;100070.41;;;23.01;58.50
15646;BME280;7922;43.622;1.476;2023-05-23T11:42:56;100110.75;;;23.51;57.98
15646;BME280;7922;43.622;1.476;2023-05-23T11:45:22;100098.84;;;24.01;56.23
15646;BME280;7922;43.622;1.476;2023-05-23T11:47:47;100083.97;;;24.15;54.68
15646;BME280;7922;43.622;1.476;2023-05-23T11:50:14;100074.47;;;24.01;56.42
15646;BME280;7922;43.622;1.476;2023-05-23T11:52:39;100084.00;;;23.48;57.49
15646;BME280;7922;43.622;1.476;2023-05-23T11:55:08;100077.53;;;23.02;58.85
15646;BME280;7922;43.622;1.476;2023-05-23T11:57:37;100065.41;;;23.36;58.19
15646;BME280;7922;43.622;1.476;2023-05-23T12:00:05;100074.44;;;23.73;57.12
15646;BME280;7922;43.622;1.476;2023-05-23T12:02:30;100047.16;;;23.94;55.75
15646;BME280;7922;43.622;1.476;2023-05-23T12:04:56;100037.75;;;23.89;54.28
15646;BME280;7922;43.622;1.476;2023-05-23T12:07:21;100058.91;;;24.03;55.25
15646;BME280;7922;43.622;1.476;2023-05-23T12:09:46;100019.06;;;23.58;55.75
15646;BME280;7922;43.622;1.476;2023-05-23T12:12:13;100002.53;;;23.71;54.67
15646;BME280;7922;43.622;1.476;2023-05-23T12:14:38;100063.41;;;23.85;56.17
15646;BME280;7922;43.622;1.476;2023-05-23T12:17:04;100039.19;;;24.48;54.43
15646;BME280;7922;43.622;1.476;2023-05-23T12:19:29;100028.41;;;23.83;54.32
15646;BME280;7922;43.622;1.476;2023-05-23T12:21:55;100060.97;;;23.91;55.74
15646;BME280;7922;43.622;1.476;2023-05-23T12:24:21;100064.44;;;23.84;55.10
15646;BME280;7922;43.622;1.476;2023-05-23T12:26:53;100056.41;;;23.92;54.61
15646;BME280;7922;43.622;1.476;2023-05-23T12:29:20;100056.13;;;23.95;55.25
15646;BME280;7922;43.622;1.476;2023-05-23T12:31:49;100031.22;;;23.91;55.57
15646;BME280;7922;43.622;1.476;2023-05-23T12:34:14;99960.66;;;24.20;53.20
15646;BME280;7922;43.622;1.476;2023-05-23T12:36:40;100005.25;;;24.26;53.68
15646;BME280;7922;43.622;1.476;2023-05-23T12:39:05;99982.03;;;24.23;53.38
15646;BME280;7922;43.622;1.476;2023-05-23T12:41:32;100009.78;;;24.25;54.15
15646;BME280;7922;43.622;1.476;2023-05-23T12:43:58;100016.78;;;23.73;55.23
15646;BME280;7922;43.622;1.476;2023-05-23T12:46:24;99989.09;;;23.42;56.13
15646;BME280;7922;43.622;1.476;2023-05-23T12:48:51;100023.19;;;23.99;55.52
15646;BME280;7922;43.622;1.476;2023-05-23T12:51:16;99985.59;;;24.24;54.93
15646;BME280;7922;43.622;1.476;2023-05-23T12:53:42;100000.09;;;24.68;53.29
15646;BME280;7922;43.622;1.476;2023-05-23T12:56:07;99988.41;;;24.68;51.71
15646;BME280;7922;43.622;1.476;2023-05-23T12:58:33;99988.16;;;24.79;53.25
15646;BME280;7922;43.622;1.476;2023-05-23T13:00:58;99945.41;;;24.91;51.83
15646;BME280;7922;43.622;1.476;2023-05-23T13:03:23;99973.13;;;25.03;51.80
15646;BME280;7922;43.622;1.476;2023-05-23T13:05:49;99985.91;;;25.10;51.78